• Join FlightAware (Why Join?)
  • Login
  • US Flag 
05:57PM EDT


 

Airport Tracker/Info


-or-


 

Live Flight TrackerFlight Track Log ✈ GGN7321 ✈ 15-Apr-2013 ✈ CYHZ - CYQM

Flight Track Log - Related Links

Times and Time Zones

All times are in EDT time to prevent confusion due to time zone crossing. See the GGN7321 flight status page for this flight to view local times or setup timezone preferences in your user account.

Time Position Orientation Groundspeed Altitude Reporting Facility
EDT Latitude Longitude Course Direction KTS MPH feet Rate Location/Type
09:19PM 44.8667 -63.5000 19° North 120 138 900  Level Moncton Center
09:20PM 44.9000 -63.4833 20° North 140 161 2,800 1,680 Climbing Moncton Center
09:21PM 44.9333 -63.5000 341° North 160 184 4,300 1,680 Climbing Moncton Center
09:22PM 44.9667 -63.5500 313° West 180 207 6,200 1,740 Climbing Moncton Center
09:23PM 45.0167 -63.6000 325° Northwest 180 207 7,800 1,620 Climbing Moncton Center
09:24PM 45.0500 -63.6167 341° North 180 207 9,500 1,620 Climbing Moncton Center
09:25PM 45.1000 -63.6667 325° Northwest 190 219 11,100 1,260 Climbing Moncton Center
09:26PM 45.1500 -63.6833 347° North 190 219 12,100 480 Climbing Moncton Center
09:27PM 45.2000 -63.7333 325° Northwest 220 253 12,100  Level Moncton Center
09:28PM 45.2500 -63.7833 325° Northwest 230 265 12,100  Level Moncton Center
09:29PM 45.3167 -63.8333 332° Northwest 230 265 12,100  Level Moncton Center
09:30PM 45.3667 -63.8667 335° Northwest 240 276 12,100  Level Moncton Center
09:31PM 45.4333 -63.9167 332° Northwest 240 276 12,100 -60 Level Moncton Center
09:32PM 45.4833 -63.9667 325° Northwest 240 276 12,000 -60 Descending Moncton Center
09:33PM 45.5333 -64.0167 325° Northwest 240 276 12,000  Level Moncton Center
09:34PM 45.6000 -64.0833 325° Northwest 240 276 12,000 -60 Level Moncton Center
09:35PM 45.6500 -64.1333 325° Northwest 240 276 11,900 -300 Descending Moncton Center
09:36PM 45.7167 -64.1833 332° Northwest 240 276 11,500 -720 Descending Moncton Center
09:37PM 45.7833 -64.2333 332° Northwest 260 299 10,500 -1,200 Descending Moncton Center
09:38PM 45.8333 -64.3000 317° Northwest 260 299 9,200 -1,380 Descending Moncton Center
09:39PM 45.9000 -64.3500 332° Northwest 260 299 7,800 -1,440 Descending Moncton Center
09:40PM 45.9500 -64.4167 317° Northwest 260 299 6,400 -1,800 Descending Moncton Center
09:41PM 46.0000 -64.4667 325° Northwest 220 253 4,200 -1,800 Descending Moncton Center
09:42PM 46.0500 -64.5167 325° Northwest 190 219 2,800 -1,260 Descending Moncton Center
09:43PM 46.0833 -64.5500 325° Northwest 170 196 1,700 -900 Descending Moncton Center
09:44PM 46.1000 -64.5833 306° West 140 161 1,100 -660 Descending Moncton Center
09:45PM 46.1000 -64.6333 270° West 120 138 400 -720 Descending Moncton Center